Burnham, Maine
Current Conditions -  °F | °C
As of 4:15 PM on Tuesday 21 Oct 2014 (Local Time) from KWVL Reporting Station
Overcast Overcast  
Wind Chill:   Ceiling: 1800
Heat Index:   Visibility: 10mi
Dew Point:   Wind: 9mph
Humidity: 71%   Direction: 30°NNE
Pressure: 30.03"   Gusts: NA
Location:  44.69°N, 69.43°W
Report Text: KWVL 212015Z 03008KT 10SM BKN018 BKN026 OVC033 09/04 A3003 RMK AO1 P0001
Loading
Personal Weather Stations






























Interactive Weather Map
Tropical Storm Tracking
New forecast layout! Learn more

10-Day Weather Forecast

Advertisements
Track Severe Weather on mobile